createdAt,value
2023-01-07T00:01:39.213Z,10.20
2023-01-07T00:04:11.394Z,9.50
2023-01-07T00:06:42.112Z,9.50
2023-01-07T00:09:17.658Z,8.80
2023-01-07T00:11:46.710Z,9.30
2023-01-07T00:14:15.802Z,10.50
2023-01-07T00:16:44.192Z,9.20
2023-01-07T00:19:15.791Z,10.30
2023-01-07T00:21:45.400Z,8.70
2023-01-07T00:24:13.886Z,10.70
2023-01-07T00:26:42.794Z,10.00
2023-01-07T00:29:11.225Z,8.70
2023-01-07T00:31:41.375Z,8.60
2023-01-07T00:34:10.410Z,9.30
2023-01-07T00:36:43.328Z,9.90
2023-01-07T00:39:15.942Z,9.40
2023-01-07T00:42:06.450Z,8.80
2023-01-07T00:44:35.574Z,11.60
2023-01-07T00:47:03.915Z,9.40
2023-01-07T00:49:32.029Z,8.50
2023-01-07T00:52:00.166Z,8.80
2023-01-07T00:54:29.843Z,8.90
2023-01-07T00:56:58.037Z,9.80
2023-01-07T00:59:27.502Z,8.70
2023-01-07T01:01:55.839Z,8.50
2023-01-07T01:04:26.063Z,9.50
2023-01-07T01:06:54.208Z,9.80
2023-01-07T01:09:25.285Z,10.10
2023-01-07T01:11:54.848Z,9.90
2023-01-07T01:14:23.037Z,8.60
2023-01-07T01:16:51.270Z,10.30
2023-01-07T01:19:19.465Z,10.40
2023-01-07T01:21:47.605Z,8.50
2023-01-07T01:24:15.954Z,9.40
2023-01-07T01:26:44.095Z,10.60
2023-01-07T01:29:13.563Z,8.80
2023-01-07T01:31:42.027Z,8.90
2023-01-07T01:34:10.260Z,10.30
2023-01-07T01:36:38.796Z,9.90
2023-01-07T01:39:07.136Z,9.20
2023-01-07T01:41:36.983Z,9.20
2023-01-07T01:44:41.433Z,10.60
2023-01-07T01:47:21.871Z,9.40
2023-01-07T01:49:58.607Z,10.20
2023-01-07T01:52:34.097Z,10.10
2023-01-07T01:55:06.193Z,8.30
2023-01-07T01:57:38.336Z,9.50
2023-01-07T02:00:10.531Z,9.10
2023-01-07T02:02:46.584Z,8.80
2023-01-07T02:05:16.513Z,8.50
2023-01-07T02:07:44.715Z,10.10
2023-01-07T02:10:17.799Z,8.90
2023-01-07T02:13:05.635Z,8.50
2023-01-07T02:15:52.211Z,9.50
2023-01-07T02:18:47.421Z,9.90
2023-01-07T02:21:34.465Z,9.50
2023-01-07T02:24:39.959Z,10.20
2023-01-07T02:27:41.402Z,9.10
2023-01-07T02:30:57.959Z,9.90
2023-01-07T02:33:47.704Z,9.50
2023-01-07T02:36:40.699Z,10.60
2023-01-07T02:39:34.735Z,9.40
2023-01-07T02:42:14.789Z,9.40
2023-01-07T02:44:50.198Z,9.90
2023-01-07T02:47:24.785Z,9.20
2023-01-07T02:49:55.276Z,8.90
2023-01-07T02:52:26.658Z,9.80
2023-01-07T02:55:00.810Z,9.70
2023-01-07T02:58:16.084Z,9.30
2023-01-07T03:01:05.354Z,9.50
2023-01-07T03:03:54.842Z,9.20
2023-01-07T03:06:42.929Z,9.10
2023-01-07T03:09:19.290Z,9.50
2023-01-07T03:12:00.388Z,9.20
2023-01-07T03:14:40.549Z,9.40
2023-01-07T03:17:13.684Z,9.20
2023-01-07T03:19:48.438Z,9.10
2023-01-07T03:22:22.045Z,9.20
2023-01-07T03:24:54.047Z,9.10
2023-01-07T03:27:23.719Z,9.10
2023-01-07T03:29:54.176Z,9.20
2023-01-07T03:32:28.831Z,9.30
2023-01-07T03:34:57.423Z,8.90
2023-01-07T03:37:29.004Z,9.10
2023-01-07T03:40:00.941Z,8.60
2023-01-07T03:42:40.505Z,8.60
2023-01-07T03:45:23.177Z,8.50
2023-01-07T03:47:54.220Z,8.50
2023-01-07T03:50:23.504Z,8.10
2023-01-07T03:52:54.365Z,8.20
2023-01-07T03:55:24.725Z,8.10
2023-01-07T03:57:58.088Z,8.10
2023-01-07T04:00:27.164Z,8.20
2023-01-07T04:03:01.961Z,7.90
2023-01-07T04:05:35.138Z,8.00
2023-01-07T04:08:05.443Z,8.20
2023-01-07T04:10:37.125Z,8.30
2023-01-07T04:13:05.283Z,8.00
2023-01-07T04:15:33.640Z,7.90
2023-01-07T04:18:01.796Z,7.90
2023-01-07T04:20:30.622Z,7.90
2023-01-07T04:22:58.792Z,8.00
2023-01-07T04:25:28.354Z,8.00
2023-01-07T04:27:57.218Z,8.30
2023-01-07T04:30:25.635Z,7.70
2023-01-07T04:32:53.832Z,8.00
2023-01-07T04:35:22.391Z,7.90
2023-01-07T04:37:51.776Z,7.70
2023-01-07T04:40:20.166Z,7.60
2023-01-07T04:42:50.517Z,7.30
2023-01-07T04:45:19.067Z,7.50
2023-01-07T04:47:47.930Z,7.40
2023-01-07T04:50:16.733Z,7.70
2023-01-07T04:52:45.892Z,7.30
2023-01-07T04:55:14.152Z,7.40
2023-01-07T04:57:42.507Z,7.40
2023-01-07T05:00:14.586Z,7.30
2023-01-07T05:02:44.984Z,7.20
2023-01-07T05:07:42.698Z,6.60
2023-01-07T05:10:11.379Z,7.10
2023-01-07T05:12:40.259Z,7.00
2023-01-07T05:15:13.463Z,6.90
2023-01-07T05:17:43.006Z,7.10
2023-01-07T05:20:13.612Z,6.90
2023-01-07T05:22:42.095Z,7.10
2023-01-07T05:25:11.465Z,7.10
2023-01-07T05:27:39.630Z,7.10
2023-01-07T05:30:11.124Z,7.00
2023-01-07T05:32:40.692Z,6.80
2023-01-07T05:35:10.338Z,6.90
2023-01-07T05:40:11.448Z,7.00
2023-01-07T05:42:39.930Z,7.00
2023-01-07T05:45:09.908Z,7.10
2023-01-07T05:47:38.073Z,6.90
2023-01-07T05:50:08.821Z,7.10
2023-01-07T05:52:37.025Z,7.30
2023-01-07T05:55:06.621Z,6.80
2023-01-07T05:57:34.803Z,7.40
2023-01-07T06:00:03.182Z,7.10
2023-01-07T06:02:40.175Z,6.60
2023-01-07T06:05:11.592Z,6.60
2023-01-07T06:07:40.026Z,7.00
2023-01-07T06:10:09.053Z,7.10
2023-01-07T06:12:37.190Z,7.80
2023-01-07T06:15:07.279Z,7.20
2023-01-07T06:17:36.263Z,7.50
2023-01-07T06:20:06.469Z,7.30
2023-01-07T06:22:36.234Z,7.30
2023-01-07T06:25:05.084Z,7.30
2023-01-07T06:27:33.368Z,7.50
2023-01-07T06:30:01.506Z,7.50
2023-01-07T06:32:29.712Z,7.40
2023-01-07T06:34:58.084Z,7.70
2023-01-07T06:37:26.360Z,7.40
2023-01-07T06:39:55.920Z,7.40
2023-01-07T06:42:24.146Z,7.50
2023-01-07T06:47:21.105Z,7.70
2023-01-07T06:49:49.367Z,8.20
2023-01-07T06:52:17.523Z,7.20
2023-01-07T06:54:47.579Z,8.00
2023-01-07T06:57:17.901Z,7.20
2023-01-07T06:59:46.197Z,7.60
2023-01-07T07:02:20.662Z,7.70
2023-01-07T07:04:49.090Z,7.30
2023-01-07T07:07:18.401Z,7.70
2023-01-07T07:09:46.845Z,7.10
2023-01-07T07:12:15.411Z,7.50
2023-01-07T07:14:45.023Z,8.50
2023-01-07T07:17:13.239Z,8.10
2023-01-07T07:22:13.448Z,8.00
2023-01-07T07:24:41.685Z,8.20
2023-01-07T07:27:09.805Z,8.30
2023-01-07T07:29:37.961Z,8.50
2023-01-07T07:32:08.822Z,8.30
2023-01-07T07:34:37.552Z,8.40
2023-01-07T07:37:06.047Z,8.30
2023-01-07T07:39:34.666Z,8.40
2023-01-07T07:42:04.783Z,8.40
2023-01-07T07:44:32.944Z,8.90
2023-01-07T07:47:01.209Z,8.30
2023-01-07T07:49:30.771Z,8.60
2023-01-07T07:51:58.957Z,8.60
2023-01-07T07:54:28.406Z,8.70
2023-01-07T07:56:58.395Z,8.60
2023-01-07T07:59:27.073Z,8.70
2023-01-07T08:01:55.315Z,8.90
2023-01-07T08:04:23.681Z,8.50
2023-01-07T08:06:53.216Z,9.20
2023-01-07T08:09:21.359Z,8.70
2023-01-07T08:11:49.690Z,9.00
2023-01-07T08:14:17.984Z,8.70
2023-01-07T08:16:46.100Z,8.80
2023-01-07T08:19:15.199Z,9.00
2023-01-07T08:24:13.445Z,9.10
2023-01-07T08:26:41.933Z,9.00
2023-01-07T08:29:10.183Z,9.20
2023-01-07T08:31:38.476Z,9.10
2023-01-07T08:34:06.920Z,9.20
2023-01-07T08:36:35.071Z,8.90
2023-01-07T08:39:03.223Z,9.00
2023-01-07T08:41:32.783Z,9.10
2023-01-07T08:44:00.883Z,9.20
2023-01-07T08:46:29.101Z,9.10
2023-01-07T08:48:57.299Z,9.10
2023-01-07T08:51:25.448Z,9.20
2023-01-07T08:53:53.657Z,9.70
2023-01-07T08:58:52.358Z,9.30
2023-01-07T09:01:20.844Z,9.60
2023-01-07T09:06:17.914Z,9.60
2023-01-07T09:08:46.035Z,9.50
2023-01-07T09:11:14.200Z,9.70
2023-01-07T09:16:12.478Z,10.00
2023-01-07T09:21:09.187Z,9.00
2023-01-07T09:23:37.342Z,9.70
2023-01-07T09:26:05.618Z,9.70
2023-01-07T09:28:33.727Z,9.90
2023-01-07T09:31:03.130Z,9.90
2023-01-07T09:33:33.102Z,9.80
2023-01-07T09:36:01.742Z,10.00
2023-01-07T09:38:29.949Z,9.80
2023-01-07T09:40:58.542Z,9.90
2023-01-07T09:43:59.949Z,9.80
2023-01-07T09:46:24.281Z,8.80
2023-01-07T09:48:59.000Z,9.80
2023-01-07T09:51:34.520Z,9.40
2023-01-07T09:54:06.414Z,9.70
2023-01-07T09:56:37.243Z,10.00
2023-01-07T09:59:07.035Z,9.60
2023-01-07T10:01:43.263Z,9.90
2023-01-07T10:04:29.931Z,10.00
2023-01-07T10:07:13.464Z,10.10
2023-01-07T10:10:09.521Z,10.10
2023-01-07T10:12:44.717Z,10.20
2023-01-07T10:15:41.138Z,10.30
2023-01-07T10:18:44.721Z,10.40
2023-01-07T10:21:22.524Z,10.40
2023-01-07T10:23:58.586Z,10.60
2023-01-07T10:26:35.672Z,10.50
2023-01-07T10:29:11.436Z,10.50
2023-01-07T10:31:40.751Z,10.60
2023-01-07T10:34:16.589Z,10.40
2023-01-07T10:37:01.316Z,10.00
2023-01-07T10:39:42.735Z,10.50
2023-01-07T10:42:19.498Z,10.50
2023-01-07T10:45:19.102Z,10.40
2023-01-07T10:48:30.692Z,11.00
2023-01-07T10:51:15.766Z,10.50
2023-01-07T10:54:00.664Z,10.60
2023-01-07T10:56:33.067Z,10.60
2023-01-07T10:59:05.489Z,10.90
2023-01-07T11:01:38.263Z,10.80
2023-01-07T11:04:15.082Z,10.80
2023-01-07T11:06:51.943Z,10.80
2023-01-07T11:09:26.193Z,10.70
2023-01-07T11:11:56.453Z,10.80
2023-01-07T11:14:30.328Z,15.30
2023-01-07T11:17:07.604Z,10.40
2023-01-07T11:19:46.364Z,10.80
2023-01-07T11:22:33.440Z,11.00
2023-01-07T11:25:23.069Z,10.90
2023-01-07T11:27:51.648Z,11.00
2023-01-07T11:30:26.972Z,10.80
2023-01-07T11:33:00.918Z,10.90
2023-01-07T11:35:30.058Z,11.20
2023-01-07T11:37:59.684Z,10.80
2023-01-07T11:40:32.538Z,12.70
2023-01-07T11:43:03.345Z,11.10
2023-01-07T11:45:36.316Z,10.70
2023-01-07T11:48:11.600Z,11.00
2023-01-07T11:50:42.750Z,11.20
2023-01-07T11:53:29.022Z,11.00
2023-01-07T11:56:02.325Z,11.00
2023-01-07T11:58:34.492Z,11.00
2023-01-07T12:01:18.522Z,10.90
2023-01-07T12:04:13.992Z,11.00
2023-01-07T12:06:46.129Z,11.00
2023-01-07T12:09:27.686Z,11.00
2023-01-07T12:12:00.671Z,11.00
2023-01-07T12:14:32.789Z,11.20
2023-01-07T12:17:11.077Z,11.20
2023-01-07T12:20:48.591Z,11.20
2023-01-07T12:23:33.853Z,11.20
2023-01-07T12:26:11.045Z,11.20
2023-01-07T12:29:00.658Z,11.20
2023-01-07T12:31:40.153Z,10.90
2023-01-07T12:34:20.729Z,11.10
2023-01-07T12:37:01.768Z,11.20
2023-01-07T12:39:36.593Z,11.10
2023-01-07T12:42:11.129Z,10.90
2023-01-07T12:44:47.805Z,11.10
2023-01-07T12:47:30.743Z,11.30
2023-01-07T12:50:07.271Z,11.20
2023-01-07T12:52:45.054Z,11.10
2023-01-07T12:55:21.441Z,11.10
2023-01-07T12:58:03.108Z,11.20
2023-01-07T13:00:37.695Z,11.00
2023-01-07T13:03:20.062Z,10.60
2023-01-07T13:05:54.384Z,11.10
2023-01-07T13:08:33.897Z,11.30
2023-01-07T13:11:13.656Z,11.50
2023-01-07T13:13:47.774Z,11.30
2023-01-07T13:16:17.566Z,12.00
2023-01-07T13:18:45.971Z,12.90
2023-01-07T13:21:16.215Z,13.70
2023-01-07T13:24:15.522Z,14.40
2023-01-07T13:26:58.527Z,14.20
2023-01-07T13:29:40.904Z,14.00
2023-01-07T13:32:46.298Z,14.20
2023-01-07T13:35:35.752Z,14.30
2023-01-07T13:38:30.469Z,14.00
2023-01-07T13:41:27.341Z,13.50
2023-01-07T13:44:26.827Z,13.30
2023-01-07T13:46:55.516Z,13.40
2023-01-07T13:49:32.953Z,13.70
2023-01-07T13:52:16.812Z,13.60
2023-01-07T13:54:57.165Z,13.20
2023-01-07T13:57:45.244Z,12.60
2023-01-07T14:00:58.671Z,12.10
2023-01-07T14:03:50.340Z,11.70
2023-01-07T14:06:45.869Z,11.40
2023-01-07T14:09:34.233Z,11.30
2023-01-07T14:12:50.579Z,11.20
2023-01-07T14:15:45.316Z,11.00
2023-01-07T14:18:57.117Z,10.40
2023-01-07T14:21:56.652Z,10.90
2023-01-07T14:25:04.611Z,10.90
2023-01-07T14:27:54.617Z,10.80
2023-01-07T14:30:27.496Z,10.80
2023-01-07T14:32:59.624Z,10.80
2023-01-07T14:35:32.959Z,10.80
2023-01-07T14:38:02.651Z,10.80
2023-01-07T14:41:09.714Z,10.70
2023-01-07T14:44:05.063Z,10.60
2023-01-07T14:47:00.336Z,10.60
2023-01-07T14:50:09.927Z,10.50
2023-01-07T14:53:34.906Z,10.50
2023-01-07T14:56:22.503Z,10.50
2023-01-07T14:59:50.509Z,10.60
2023-01-07T15:03:18.887Z,10.40
2023-01-07T15:06:12.695Z,10.40
2023-01-07T15:09:08.056Z,10.40
2023-01-07T15:11:56.866Z,10.00
2023-01-07T15:14:48.998Z,10.10
2023-01-07T15:17:18.161Z,10.20
2023-01-07T15:22:46.659Z,10.10
2023-01-07T15:25:31.132Z,10.00
2023-01-07T15:28:06.796Z,10.00
2023-01-07T15:30:49.649Z,9.90
2023-01-07T15:33:58.474Z,9.90
2023-01-07T15:36:30.154Z,9.90
2023-01-07T15:39:01.841Z,9.90
2023-01-07T15:41:38.899Z,9.90
2023-01-07T15:44:25.183Z,9.80
2023-01-07T15:46:53.856Z,9.80
2023-01-07T15:49:24.967Z,9.80
2023-01-07T15:51:56.690Z,9.50
2023-01-07T15:54:34.413Z,9.40
2023-01-07T15:57:10.179Z,9.40
2023-01-07T15:59:44.627Z,9.40
2023-01-07T16:02:23.247Z,9.40
2023-01-07T16:04:54.159Z,9.40
2023-01-07T16:07:28.328Z,9.40
2023-01-07T16:09:57.847Z,9.30
2023-01-07T16:12:35.077Z,9.20
2023-01-07T16:15:20.896Z,8.80
2023-01-07T16:17:52.570Z,9.10
2023-01-07T16:20:25.082Z,8.90
2023-01-07T16:23:13.551Z,9.00
2023-01-07T16:25:46.336Z,9.00
2023-01-07T16:28:19.415Z,9.00
2023-01-07T16:30:48.859Z,8.80
2023-01-07T16:33:19.660Z,8.70
2023-01-07T16:35:49.829Z,8.60
2023-01-07T16:38:20.544Z,8.60
2023-01-07T16:40:49.167Z,8.20
2023-01-07T16:43:44.526Z,8.00
2023-01-07T16:46:27.702Z,7.90
2023-01-07T16:49:27.379Z,7.80
2023-01-07T16:52:06.041Z,7.60
2023-01-07T16:54:37.493Z,7.50
2023-01-07T16:57:27.221Z,7.50
2023-01-07T16:59:58.417Z,7.40
2023-01-07T17:02:34.141Z,7.30
2023-01-07T17:05:18.600Z,6.80
2023-01-07T17:07:49.225Z,7.10
2023-01-07T17:10:25.631Z,7.10
2023-01-07T17:13:01.237Z,7.10
2023-01-07T17:15:40.052Z,7.00
2023-01-07T17:18:30.095Z,7.00
2023-01-07T17:21:00.582Z,7.00
2023-01-07T17:23:45.563Z,6.60
2023-01-07T17:26:22.689Z,6.90
2023-01-07T17:28:53.378Z,7.10
2023-01-07T17:31:24.029Z,7.10
2023-01-07T17:33:53.123Z,7.10
2023-01-07T17:36:24.308Z,7.30
2023-01-07T17:38:53.348Z,7.50
2023-01-07T17:41:41.218Z,7.20
2023-01-07T17:44:12.939Z,7.80
2023-01-07T17:46:43.052Z,7.30
2023-01-07T17:49:12.066Z,7.20
2023-01-07T17:51:43.169Z,7.20
2023-01-07T17:54:20.976Z,7.20
2023-01-07T17:56:49.641Z,7.20
2023-01-07T17:59:20.495Z,7.40
2023-01-07T18:01:51.189Z,7.20
2023-01-07T18:04:21.415Z,7.20
2023-01-07T18:06:49.771Z,7.20
2023-01-07T18:12:05.426Z,7.20
2023-01-07T18:14:33.850Z,7.20
2023-01-07T18:17:03.413Z,7.10
2023-01-07T18:19:31.581Z,7.20
2023-01-07T18:24:28.236Z,7.40
2023-01-07T18:26:56.751Z,7.30
2023-01-07T18:29:25.168Z,7.40
2023-01-07T18:34:23.363Z,7.30
2023-01-07T18:36:51.626Z,7.20
2023-01-07T18:39:20.608Z,7.20
2023-01-07T18:41:50.379Z,7.10
2023-01-07T18:44:19.258Z,7.20
2023-01-07T18:46:47.742Z,7.20
2023-01-07T18:49:16.258Z,7.10
2023-01-07T18:51:47.734Z,7.20
2023-01-07T18:54:16.669Z,7.10
2023-01-07T18:56:46.132Z,7.20
2023-01-07T18:59:14.454Z,6.90
2023-01-07T19:01:42.920Z,6.80
2023-01-07T19:06:39.892Z,6.70
2023-01-07T19:09:09.535Z,6.70
2023-01-07T19:11:38.604Z,6.60
2023-01-07T19:14:06.808Z,6.60
2023-01-07T19:16:35.559Z,6.60
2023-01-07T19:19:05.103Z,6.50
2023-01-07T19:21:33.335Z,6.50
2023-01-07T19:26:35.215Z,6.60
2023-01-07T19:31:32.818Z,6.80
2023-01-07T19:36:31.833Z,6.70
2023-01-07T19:39:00.006Z,7.00
2023-01-07T19:44:01.448Z,7.10
2023-01-07T19:48:58.559Z,7.10
2023-01-07T19:51:26.763Z,7.10
2023-01-07T19:53:54.941Z,6.40
2023-01-07T19:56:23.128Z,7.00
2023-01-07T19:58:54.094Z,6.80
2023-01-07T20:01:26.653Z,6.80
2023-01-07T20:03:56.940Z,6.60
2023-01-07T20:06:27.359Z,6.60
2023-01-07T20:08:57.052Z,6.70
2023-01-07T20:11:27.706Z,6.60
2023-01-07T20:13:57.034Z,6.60
2023-01-07T20:16:27.783Z,6.60
2023-01-07T20:18:56.840Z,6.40
2023-01-07T20:21:28.808Z,6.00
2023-01-07T20:23:58.229Z,6.50
2023-01-07T20:26:30.817Z,6.70
2023-01-07T20:29:01.659Z,6.80
2023-01-07T20:31:32.488Z,6.80
2023-01-07T20:36:33.049Z,7.00
2023-01-07T20:39:05.701Z,7.00
2023-01-07T20:41:35.595Z,7.20
2023-01-07T20:44:06.311Z,7.50
2023-01-07T20:46:37.361Z,7.20
2023-01-07T20:49:05.455Z,7.50
2023-01-07T20:51:33.915Z,7.40
2023-01-07T20:54:02.236Z,7.50
2023-01-07T20:56:33.835Z,7.60
2023-01-07T20:59:04.170Z,7.70
2023-01-07T21:01:32.555Z,7.80
2023-01-07T21:04:02.498Z,7.90
2023-01-07T21:06:30.673Z,7.90
2023-01-07T21:08:58.914Z,7.70
2023-01-07T21:11:28.532Z,8.10
2023-01-07T21:13:57.856Z,8.10
2023-01-07T21:16:28.523Z,8.10
2023-01-07T21:18:57.610Z,8.50
2023-01-07T21:21:28.533Z,8.20
2023-01-07T21:23:58.093Z,8.00
2023-01-07T21:26:27.605Z,7.90
2023-01-07T21:28:57.257Z,7.60
2023-01-07T21:31:27.094Z,8.10
2023-01-07T21:33:58.274Z,8.20
2023-01-07T21:36:31.087Z,8.00
2023-01-07T21:39:00.375Z,8.10
2023-01-07T21:41:31.065Z,7.70
2023-01-07T21:44:00.398Z,8.30
2023-01-07T21:46:29.771Z,8.30
2023-01-07T21:51:29.275Z,7.90
2023-01-07T21:53:59.175Z,8.30
2023-01-07T21:56:32.168Z,8.20
2023-01-07T21:59:01.803Z,8.30
2023-01-07T22:01:31.220Z,8.10
2023-01-07T22:04:00.134Z,8.30
2023-01-07T22:06:34.465Z,8.40
2023-01-07T22:09:05.274Z,8.40
2023-01-07T22:11:35.435Z,8.40
2023-01-07T22:14:03.799Z,8.50
2023-01-07T22:16:34.009Z,8.50
2023-01-07T22:19:04.900Z,8.60
2023-01-07T22:21:35.662Z,8.70
2023-01-07T22:24:05.629Z,9.00
2023-01-07T22:26:37.235Z,8.80
2023-01-07T22:29:08.700Z,9.10
2023-01-07T22:31:38.129Z,9.00
2023-01-07T22:34:07.727Z,9.40
2023-01-07T22:36:48.734Z,9.80
2023-01-07T22:39:23.808Z,9.20
2023-01-07T22:41:56.618Z,9.20
2023-01-07T22:44:31.433Z,9.20
2023-01-07T22:49:32.797Z,9.30
2023-01-07T22:52:03.962Z,9.30
2023-01-07T22:54:33.100Z,9.40
2023-01-07T22:57:01.687Z,9.30
2023-01-07T23:01:59.777Z,9.50
2023-01-07T23:04:29.750Z,9.40
2023-01-07T23:06:59.244Z,9.50
2023-01-07T23:09:29.910Z,9.60
2023-01-07T23:12:00.896Z,9.60
2023-01-07T23:14:32.089Z,9.60
2023-01-07T23:17:02.803Z,9.50
2023-01-07T23:19:32.401Z,9.70
2023-01-07T23:22:03.190Z,9.70
2023-01-07T23:24:32.628Z,10.00
2023-01-07T23:29:29.296Z,10.00
2023-01-07T23:31:58.821Z,10.10
2023-01-07T23:34:28.208Z,9.90
2023-01-07T23:36:58.779Z,10.00
2023-01-07T23:41:59.152Z,10.00
2023-01-07T23:44:27.576Z,9.90
2023-01-07T23:46:59.376Z,10.00
2023-01-07T23:49:28.695Z,10.00
2023-01-07T23:51:58.024Z,10.00
2023-01-07T23:54:26.334Z,10.00
2023-01-07T23:56:57.047Z,10.00
2023-01-07T23:59:25.561Z,10.00
